Time;durP1;ratioP1;P1;durP2;ratioP2;P2;SDS_P1;SDS_P2;PMS_P1;PMS_P2;Temp;Humidity;BMP_temperature;BMP_pressure;BME280_temperature;BME280_humidity;BME280_pressure;Samples;Min_cycle;Max_cycle;Signal;HPM_P1;HPM_P2
2022/08/24 00:03:58;;;;;;;1.80;1.20;;;;;;;;;;10465667;28;20051;-77
2022/08/24 00:09:01;;;;;;;0.80;0.80;;;;;;;;;;10464804;28;20632;-79
2022/08/24 00:14:06;;;;;;;1.33;0.98;;;;;;;;;;10483190;28;20050;-77
2022/08/24 00:19:10;;;;;;;2.03;1.00;;;;;;;;;;10514681;28;20584;-79
2022/08/24 00:24:13;;;;;;;1.25;0.95;;;;;;;;;;10515319;28;20143;-81
2022/08/24 00:29:19;;;;;;;2.17;1.15;;;;;;;;;;10481616;28;20690;-82
2022/08/24 00:34:22;;;;;;;1.23;0.98;;;;;;;;;;10481184;28;20921;-78
2022/08/24 00:39:26;;;;;;;1.52;0.90;;;;;;;;;;10464260;28;20044;-78
2022/08/24 00:44:31;;;;;;;3.50;1.00;;;;;;;;;;10481701;28;20033;-79
2022/08/24 00:49:39;;;;;;;1.08;0.90;;;;;;;;;;10481649;28;20452;-77
2022/08/24 00:54:46;;;;;;;1.50;0.98;;;;;;;;;;10465457;28;20052;-78
2022/08/24 00:59:54;;;;;;;1.17;1.00;;;;;;;;;;10480741;28;20040;-77
2022/08/24 01:05:00;;;;;;;2.03;0.95;;;;;;;;;;10460403;28;20086;-77
2022/08/24 01:10:08;;;;;;;1.10;0.85;;;;;;;;;;10462943;28;20044;-79
2022/08/24 01:15:13;;;;;;;0.98;0.90;;;;;;;;;;10480919;28;20048;-77
2022/08/24 01:20:19;;;;;;;1.17;1.00;;;;;;;;;;10481761;28;20048;-78
2022/08/24 01:25:27;;;;;;;1.23;1.10;;;;;;;;;;10497302;28;20063;-76
2022/08/24 01:30:31;;;;;;;1.40;0.80;;;;;;;;;;10500279;28;20113;-77
2022/08/24 01:35:35;;;;;;;1.42;1.20;;;;;;;;;;10479556;28;20892;-82
2022/08/24 01:40:45;;;;;;;2.15;1.40;;;;;;;;;;10486256;28;20052;-77
2022/08/24 01:45:48;;;;;;;1.27;0.95;;;;;;;;;;10464334;28;20079;-82
2022/08/24 01:50:52;;;;;;;1.48;1.00;;;;;;;;;;10477903;28;20734;-82
2022/08/24 01:55:58;;;;;;;2.10;1.00;;;;;;;;;;10488267;28;20044;-77
2022/08/24 02:01:03;;;;;;;1.43;1.23;;;;;;;;;;10503117;28;20047;-76
2022/08/24 02:06:07;;;;;;;1.30;0.93;;;;;;;;;;10464028;28;20287;-77
2022/08/24 02:11:12;;;;;;;1.70;1.10;;;;;;;;;;10465838;28;20037;-81
2022/08/24 02:16:16;;;;;;;1.57;1.00;;;;;;;;;;10481884;28;20044;-80
2022/08/24 02:21:20;;;;;;;1.80;1.33;;;;;;;;;;10480069;28;20041;-81
2022/08/24 02:26:25;;;;;;;1.50;1.05;;;;;;;;;;10474302;28;20044;-79
2022/08/24 02:31:29;;;;;;;1.10;0.95;;;;;;;;;;10475660;28;20665;-80
2022/08/24 02:36:32;;;;;;;1.35;1.10;;;;;;;;;;10473008;28;20051;-80
2022/08/24 02:41:38;;;;;;;2.13;1.27;;;;;;;;;;10481786;28;20481;-79
2022/08/24 02:46:42;;;;;;;1.65;1.35;;;;;;;;;;10468944;28;20051;-79
2022/08/24 02:51:47;;;;;;;1.40;1.30;;;;;;;;;;10475507;28;20043;-80
2022/08/24 02:56:57;;;;;;;1.40;1.25;;;;;;;;;;10484610;28;20075;-80
2022/08/24 03:02:01;;;;;;;1.30;1.20;;;;;;;;;;10474249;28;20048;-76
2022/08/24 03:07:05;;;;;;;1.52;1.13;;;;;;;;;;10459360;28;20123;-78
2022/08/24 03:12:11;;;;;;;2.30;1.20;;;;;;;;;;10477832;28;20524;-80
2022/08/24 03:17:14;;;;;;;1.20;1.00;;;;;;;;;;10484143;28;20048;-79
2022/08/24 03:22:18;;;;;;;1.67;0.98;;;;;;;;;;10475264;28;20049;-80
2022/08/24 03:27:23;;;;;;;1.30;1.20;;;;;;;;;;10485423;28;20045;-80
2022/08/24 03:32:26;;;;;;;2.80;1.30;;;;;;;;;;10480213;28;20064;-80
2022/08/24 03:37:31;;;;;;;1.20;1.10;;;;;;;;;;10475955;28;20037;-80
2022/08/24 03:42:38;;;;;;;1.23;1.10;;;;;;;;;;10483044;28;20115;-77
2022/08/24 03:47:41;;;;;;;;;;;;;;;;;;10485495;28;20102;-80
2022/08/24 03:52:46;;;;;;;1.20;1.10;;;;;;;;;;10492462;28;19944;-79
2022/08/24 03:57:51;;;;;;;3.28;1.40;;;;;;;;;;10483790;28;20068;-78
2022/08/24 04:02:55;;;;;;;1.50;1.20;;;;;;;;;;10465174;28;20051;-78
2022/08/24 04:08:01;;;;;;;2.20;1.42;;;;;;;;;;10481053;28;20049;-77
2022/08/24 04:13:07;;;;;;;2.97;1.40;;;;;;;;;;10481779;28;20048;-79
2022/08/24 04:18:11;;;;;;;1.85;1.00;;;;;;;;;;10494408;28;20037;-78
2022/08/24 04:23:15;;;;;;;1.95;1.48;;;;;;;;;;10472401;28;20481;-78
2022/08/24 04:28:21;;;;;;;1.92;1.45;;;;;;;;;;10467885;28;20055;-78
2022/08/24 04:33:25;;;;;;;1.70;1.30;;;;;;;;;;10470238;28;20041;-78
2022/08/24 04:38:29;;;;;;;2.33;1.17;;;;;;;;;;10470169;28;20101;-80
2022/08/24 04:43:51;;;;;;;1.55;1.23;;;;;;;;;;10481283;28;20044;-80
2022/08/24 04:48:55;;;;;;;1.30;1.20;;;;;;;;;;10475933;28;20131;-80
2022/08/24 04:53:59;;;;;;;2.60;1.45;;;;;;;;;;10465041;28;20068;-82
2022/08/24 04:59:05;;;;;;;1.48;1.30;;;;;;;;;;10480422;28;20053;-82
2022/08/24 05:04:09;;;;;;;2.63;1.40;;;;;;;;;;10498281;28;20059;-80
2022/08/24 05:09:13;;;;;;;1.23;1.10;;;;;;;;;;10489013;28;20090;-81
2022/08/24 05:14:19;;;;;;;1.90;1.38;;;;;;;;;;10478476;28;20749;-79
2022/08/24 05:19:24;;;;;;;1.85;1.30;;;;;;;;;;10467891;28;20052;-78
2022/08/24 05:24:28;;;;;;;1.45;1.10;;;;;;;;;;10458312;28;20041;-78
2022/08/24 05:29:35;;;;;;;1.25;1.10;;;;;;;;;;10465549;28;20480;-77
2022/08/24 05:34:38;;;;;;;1.88;1.20;;;;;;;;;;10479613;28;20048;-78
2022/08/24 05:39:42;;;;;;;3.08;1.45;;;;;;;;;;10472925;28;20036;-78
2022/08/24 05:44:47;;;;;;;3.20;1.10;;;;;;;;;;10488483;28;20102;-78
2022/08/24 05:49:54;;;;;;;1.27;1.00;;;;;;;;;;10480153;28;20068;-78
2022/08/24 05:54:59;;;;;;;2.38;1.20;;;;;;;;;;10472309;28;20109;-79
2022/08/24 06:00:06;;;;;;;2.15;1.00;;;;;;;;;;10461744;28;20055;-77
2022/08/24 06:05:30;;;;;;;2.08;0.85;;;;;;;;;;10448469;28;20509;-77
2022/08/24 06:10:39;;;;;;;1.30;1.00;;;;;;;;;;10430809;28;20040;-79
2022/08/24 06:15:44;;;;;;;1.60;0.98;;;;;;;;;;10429655;28;20053;-79
2022/08/24 06:20:53;;;;;;;1.55;1.08;;;;;;;;;;10433892;28;20053;-79
2022/08/24 06:31:24;;;;;;;4.60;1.08;;;;;;;;;;10437163;28;20522;-78
2022/08/24 06:36:28;;;;;;;1.67;1.13;;;;;;;;;;10469739;28;20742;-78
2022/08/24 06:41:33;;;;;;;1.48;1.20;;;;;;;;;;10477880;28;20528;-78
2022/08/24 06:46:38;;;;;;;2.13;1.10;;;;;;;;;;10485052;28;20068;-79
2022/08/24 06:51:41;;;;;;;2.20;1.08;;;;;;;;;;10470566;28;20045;-78
2022/08/24 06:56:46;;;;;;;1.48;1.02;;;;;;;;;;10478211;28;20036;-78
2022/08/24 07:01:52;;;;;;;2.30;0.90;;;;;;;;;;10468670;28;20036;-79
2022/08/24 07:06:55;;;;;;;;;;;;;;;;;;10477622;28;20044;-79
2022/08/24 07:11:59;;;;;;;2.88;1.52;;;;;;;;;;10461595;28;19920;-78
2022/08/24 07:17:06;;;;;;;2.97;1.27;;;;;;;;;;10460586;28;20051;-78
2022/08/24 07:22:09;;;;;;;3.47;1.40;;;;;;;;;;10488176;28;20041;-79
2022/08/24 07:27:13;;;;;;;4.00;1.33;;;;;;;;;;10476995;28;20699;-77
2022/08/24 07:32:18;;;;;;;2.78;1.40;;;;;;;;;;10489091;28;20143;-79
2022/08/24 07:37:22;;;;;;;1.40;0.85;;;;;;;;;;10487730;28;20090;-79
2022/08/24 07:42:25;;;;;;;1.77;1.13;;;;;;;;;;10482528;28;20098;-79
2022/08/24 07:47:33;;;;;;;2.75;1.52;;;;;;;;;;10481983;28;20060;-78
2022/08/24 07:52:46;;;;;;;2.25;1.27;;;;;;;;;;10479917;28;20049;-78
2022/08/24 07:57:49;;;;;;;5.93;1.40;;;;;;;;;;10469590;28;20055;-78
2022/08/24 08:02:55;;;;;;;2.83;1.40;;;;;;;;;;10481905;28;20511;-79
2022/08/24 08:07:59;;;;;;;1.42;1.00;;;;;;;;;;10461093;28;20087;-78
2022/08/24 08:13:08;;;;;;;2.70;1.15;;;;;;;;;;10465900;28;20062;-79
2022/08/24 08:18:13;;;;;;;1.30;0.85;;;;;;;;;;10482000;28;20094;-79
2022/08/24 08:28:38;;;;;;;2.80;0.98;;;;;;;;;;10482518;28;20102;-79
2022/08/24 08:33:43;;;;;;;3.47;1.20;;;;;;;;;;10467662;28;20126;-79
2022/08/24 08:38:49;;;;;;;2.80;1.50;;;;;;;;;;10467184;28;20045;-79
2022/08/24 08:43:59;;;;;;;1.92;0.98;;;;;;;;;;10465627;28;20040;-79
2022/08/24 08:49:26;;;;;;;2.13;1.00;;;;;;;;;;10477409;28;20044;-79
2022/08/24 08:54:38;;;;;;;1.23;0.80;;;;;;;;;;10474132;28;20067;-79
2022/08/24 08:59:55;;;;;;;0.95;0.70;;;;;;;;;;10470421;28;20056;-79
2022/08/24 09:05:29;;;;;;;0.90;0.80;;;;;;;;;;10469964;28;20071;-79
2022/08/24 09:10:50;;;;;;;1.83;0.98;;;;;;;;;;10473162;28;20090;-78
2022/08/24 09:16:18;;;;;;;0.95;0.75;;;;;;;;;;10481412;28;20047;-78
2022/08/24 09:21:52;;;;;;;2.53;1.20;;;;;;;;;;10466805;28;20075;-79
2022/08/24 09:27:15;;;;;;;1.10;0.75;;;;;;;;;;10475420;28;20041;-78
2022/08/24 09:32:34;;;;;;;1.23;0.65;;;;;;;;;;10469183;28;20442;-79
2022/08/24 09:37:56;;;;;;;0.85;0.47;;;;;;;;;;10474984;28;20444;-79
2022/08/24 09:43:30;;;;;;;2.55;1.00;;;;;;;;;;10485561;28;20052;-78
2022/08/24 09:49:02;;;;;;;1.42;0.80;;;;;;;;;;10487210;28;20068;-78
2022/08/24 09:54:41;;;;;;;1.52;0.88;;;;;;;;;;10483045;28;20071;-78
2022/08/24 09:59:58;;;;;;;1.67;0.73;;;;;;;;;;10461748;28;20086;-79
2022/08/24 10:05:12;;;;;;;1.80;0.77;;;;;;;;;;10487214;28;20102;-80
2022/08/24 10:10:29;;;;;;;3.15;0.98;;;;;;;;;;10489202;28;20593;-79
2022/08/24 10:15:42;;;;;;;1.58;0.70;;;;;;;;;;10492649;28;20044;-79
2022/08/24 10:21:00;;;;;;;0.70;0.60;;;;;;;;;;10489780;28;20055;-79
2022/08/24 10:26:17;;;;;;;2.58;0.63;;;;;;;;;;10494343;28;20196;-80
2022/08/24 10:31:30;;;;;;;0.50;0.50;;;;;;;;;;10484120;28;20532;-78
2022/08/24 10:36:49;;;;;;;1.02;0.50;;;;;;;;;;10491342;28;20040;-79
2022/08/24 10:48:08;;;;;;;1.35;0.68;;;;;;;;;;10490578;28;20045;-79
2022/08/24 10:53:14;;;;;;;;;;;;;;;;;;10481583;28;20053;-80
2022/08/24 10:58:50;;;;;;;1.70;0.55;;;;;;;;;;10490883;28;19920;-80
2022/08/24 11:03:59;;;;;;;1.05;0.70;;;;;;;;;;10479355;28;20459;-79
2022/08/24 11:09:07;;;;;;;1.13;0.90;;;;;;;;;;10490634;28;20106;-79
2022/08/24 11:14:29;;;;;;;0.95;0.60;;;;;;;;;;10487252;28;20049;-80
2022/08/24 11:19:34;;;;;;;3.38;0.93;;;;;;;;;;10472922;28;20075;-79
2022/08/24 11:24:42;;;;;;;1.02;0.65;;;;;;;;;;10487814;28;20086;-79
2022/08/24 11:30:05;;;;;;;2.13;0.90;;;;;;;;;;10481462;28;20049;-80
2022/08/24 11:35:17;;;;;;;3.17;1.20;;;;;;;;;;10475732;28;20052;-79
2022/08/24 11:40:25;;;;;;;0.80;0.70;;;;;;;;;;10489154;28;20059;-79
2022/08/24 11:45:37;;;;;;;1.65;0.70;;;;;;;;;;10473295;28;20447;-79
2022/08/24 11:50:45;;;;;;;0.47;0.45;;;;;;;;;;10479782;28;20045;-79
2022/08/24 11:55:59;;;;;;;1.00;0.60;;;;;;;;;;10477357;28;20041;-79
2022/08/24 12:01:08;;;;;;;1.75;0.75;;;;;;;;;;10459563;28;20512;-79
2022/08/24 12:06:27;;;;;;;0.93;0.50;;;;;;;;;;10481561;28;20040;-79
2022/08/24 12:11:39;;;;;;;0.60;0.55;;;;;;;;;;10472231;28;20044;-79
2022/08/24 12:16:48;;;;;;;1.25;0.43;;;;;;;;;;10487387;28;20041;-79
2022/08/24 12:21:56;;;;;;;3.33;1.02;;;;;;;;;;10486808;28;20067;-79
2022/08/24 12:27:06;;;;;;;1.00;0.52;;;;;;;;;;10476356;28;20401;-79
2022/08/24 12:32:15;;;;;;;0.88;0.47;;;;;;;;;;10481423;28;20127;-79
2022/08/24 12:37:25;;;;;;;0.63;0.55;;;;;;;;;;10472705;28;20055;-79
2022/08/24 12:42:37;;;;;;;1.17;0.30;;;;;;;;;;10484893;28;20056;-78
2022/08/24 12:47:45;;;;;;;1.13;0.70;;;;;;;;;;10473769;28;20052;-77
2022/08/24 12:53:09;;;;;;;3.03;0.68;;;;;;;;;;10478263;28;20504;-77
2022/08/24 12:58:40;;;;;;;2.60;0.53;;;;;;;;;;10472535;28;20105;-78
2022/08/24 13:04:01;;;;;;;0.63;0.40;;;;;;;;;;10460736;28;20036;-78
2022/08/24 13:09:08;;;;;;;1.10;0.80;;;;;;;;;;10470334;28;20075;-78
2022/08/24 13:14:20;;;;;;;0.50;0.45;;;;;;;;;;10477554;28;20474;-78
2022/08/24 13:19:37;;;;;;;1.27;0.50;;;;;;;;;;10479865;28;20451;-78
2022/08/24 13:24:43;;;;;;;1.40;0.50;;;;;;;;;;10485972;28;20044;-77
2022/08/24 13:29:52;;;;;;;0.65;0.52;;;;;;;;;;10477188;28;20052;-78
2022/08/24 13:34:58;;;;;;;1.95;0.60;;;;;;;;;;10469797;28;20089;-78
2022/08/24 13:40:08;;;;;;;1.20;0.68;;;;;;;;;;10464209;28;20074;-78
2022/08/24 13:45:25;;;;;;;1.02;0.47;;;;;;;;;;10466888;28;20051;-77
2022/08/24 13:50:37;;;;;;;2.47;0.50;;;;;;;;;;10478806;28;20040;-78
2022/08/24 13:55:47;;;;;;;0.50;0.50;;;;;;;;;;10478415;28;20054;-77
2022/08/24 14:00:55;;;;;;;1.40;0.80;;;;;;;;;;10458260;28;20087;-78
2022/08/24 14:06:18;;;;;;;1.13;0.60;;;;;;;;;;10475848;28;20563;-77
2022/08/24 14:11:46;;;;;;;1.52;0.63;;;;;;;;;;10478127;28;20042;-78
2022/08/24 14:22:33;;;;;;;1.30;0.47;;;;;;;;;;10472147;28;20072;-78
2022/08/24 14:27:41;;;;;;;1.00;0.40;;;;;;;;;;10458622;28;20040;-78
2022/08/24 14:33:02;;;;;;;0.80;0.30;;;;;;;;;;10473795;28;20106;-78
2022/08/24 14:38:37;;;;;;;1.15;0.40;;;;;;;;;;10481821;28;20098;-78
2022/08/24 14:44:08;;;;;;;0.60;0.40;;;;;;;;;;10486663;28;20051;-78
2022/08/24 14:49:21;;;;;;;0.57;0.50;;;;;;;;;;10458153;28;20048;-77
2022/08/24 14:54:36;;;;;;;0.40;0.40;;;;;;;;;;10480262;28;20178;-77
2022/08/24 14:59:51;;;;;;;0.60;0.50;;;;;;;;;;10477539;28;20036;-78
2022/08/24 15:05:05;;;;;;;0.65;0.40;;;;;;;;;;10485386;28;20063;-77
2022/08/24 15:10:13;;;;;;;0.40;0.40;;;;;;;;;;10474647;28;20621;-80
2022/08/24 15:15:29;;;;;;;0.82;0.45;;;;;;;;;;10477070;28;20420;-79
2022/08/24 15:20:55;;;;;;;0.30;0.20;;;;;;;;;;10481191;28;20032;-78
2022/08/24 15:26:06;;;;;;;2.17;0.55;;;;;;;;;;10477907;28;20045;-78
2022/08/24 15:31:18;;;;;;;1.25;0.38;;;;;;;;;;10473546;28;20044;-78
2022/08/24 15:36:22;;;;;;;2.90;0.32;;;;;;;;;;10463609;28;20037;-78
2022/08/24 15:41:30;;;;;;;1.13;0.40;;;;;;;;;;10481352;28;20056;-78
2022/08/24 15:46:37;;;;;;;0.63;0.40;;;;;;;;;;10484204;28;20091;-80
2022/08/24 15:51:47;;;;;;;0.73;0.30;;;;;;;;;;10470166;28;20049;-80
2022/08/24 15:56:55;;;;;;;1.13;0.47;;;;;;;;;;10469351;28;20520;-78
2022/08/24 16:02:27;;;;;;;0.50;0.30;;;;;;;;;;10487824;28;20094;-78
2022/08/24 16:07:34;;;;;;;0.45;0.25;;;;;;;;;;10467807;28;20086;-79
2022/08/24 16:12:39;;;;;;;0.38;0.20;;;;;;;;;;10486460;28;20051;-79
2022/08/24 16:17:48;;;;;;;0.47;0.30;;;;;;;;;;10471135;28;20099;-77
2022/08/24 16:22:56;;;;;;;0.80;0.35;;;;;;;;;;10468292;28;20652;-80
2022/08/24 16:28:06;;;;;;;1.15;0.40;;;;;;;;;;10467462;28;20750;-78
2022/08/24 16:33:10;;;;;;;0.30;0.30;;;;;;;;;;10485086;28;20055;-79
2022/08/24 16:38:13;;;;;;;1.37;0.40;;;;;;;;;;10484091;28;20506;-81
2022/08/24 16:43:18;;;;;;;0.40;0.28;;;;;;;;;;10484327;28;20044;-83
2022/08/24 16:48:22;;;;;;;0.57;0.40;;;;;;;;;;10470632;28;20032;-78
2022/08/24 16:53:25;;;;;;;0.77;0.45;;;;;;;;;;10485566;28;20086;-78
2022/08/24 16:58:32;;;;;;;1.90;0.60;;;;;;;;;;10485797;28;20045;-78
2022/08/24 17:03:36;;;;;;;1.48;0.55;;;;;;;;;;10486533;28;20033;-79
2022/08/24 17:08:40;;;;;;;1.02;0.50;;;;;;;;;;10486371;28;20048;-79
2022/08/24 17:13:46;;;;;;;0.55;0.40;;;;;;;;;;10467512;28;20557;-79
2022/08/24 17:18:52;;;;;;;0.90;0.47;;;;;;;;;;10492261;28;20040;-78
2022/08/24 17:23:55;;;;;;;0.82;0.50;;;;;;;;;;10476123;28;20094;-79
2022/08/24 17:29:05;;;;;;;0.38;0.35;;;;;;;;;;10477155;28;20051;-78
2022/08/24 17:34:08;;;;;;;0.50;0.50;;;;;;;;;;10486643;28;20049;-79
2022/08/24 17:39:13;;;;;;;0.68;0.40;;;;;;;;;;10489425;28;20785;-79
2022/08/24 17:44:23;;;;;;;0.85;0.40;;;;;;;;;;10484811;28;20363;-78
2022/08/24 17:49:27;;;;;;;0.70;0.32;;;;;;;;;;10484014;28;20573;-78
2022/08/24 17:54:31;;;;;;;1.08;0.40;;;;;;;;;;10474564;28;20750;-79
2022/08/24 17:59:37;;;;;;;1.73;0.50;;;;;;;;;;10457749;28;20037;-78
2022/08/24 18:04:42;;;;;;;0.90;0.50;;;;;;;;;;10490550;28;20366;-78
2022/08/24 18:09:49;;;;;;;0.90;0.50;;;;;;;;;;10490159;28;20139;-79
2022/08/24 18:14:54;;;;;;;0.60;0.40;;;;;;;;;;10491400;28;20082;-79
2022/08/24 18:19:57;;;;;;;0.80;0.63;;;;;;;;;;10473065;28;20080;-79
2022/08/24 18:25:01;;;;;;;0.68;0.50;;;;;;;;;;10470422;28;20048;-79
2022/08/24 18:30:12;;;;;;;0.60;0.38;;;;;;;;;;10484455;28;20087;-78
2022/08/24 18:35:16;;;;;;;0.90;0.40;;;;;;;;;;10463285;28;20051;-78
2022/08/24 18:40:20;;;;;;;1.33;0.50;;;;;;;;;;10466483;28;20491;-78
2022/08/24 18:45:28;;;;;;;0.30;0.30;;;;;;;;;;10488697;28;20044;-78
2022/08/24 18:50:33;;;;;;;2.75;0.90;;;;;;;;;;10467578;28;20557;-77
2022/08/24 18:55:38;;;;;;;2.05;0.90;;;;;;;;;;10475363;28;20041;-78
2022/08/24 19:00:43;;;;;;;0.77;0.43;;;;;;;;;;10468275;28;20079;-79
2022/08/24 19:05:47;;;;;;;0.57;0.50;;;;;;;;;;10480769;28;20506;-78
2022/08/24 19:10:51;;;;;;;0.63;0.60;;;;;;;;;;10471069;28;20078;-79
2022/08/24 19:15:56;;;;;;;3.03;0.60;;;;;;;;;;10483852;28;20098;-79
2022/08/24 19:21:00;;;;;;;;;;;;;;;;;;10473862;28;20400;-78
2022/08/24 19:26:04;;;;;;;1.35;0.80;;;;;;;;;;10484988;28;19959;-79
2022/08/24 19:31:12;;;;;;;1.77;0.50;;;;;;;;;;10467745;28;20571;-78
2022/08/24 19:36:16;;;;;;;0.60;0.60;;;;;;;;;;10474369;28;20102;-78
2022/08/24 19:41:20;;;;;;;1.52;0.70;;;;;;;;;;10474105;28;20043;-80
2022/08/24 19:46:25;;;;;;;1.42;0.65;;;;;;;;;;10476372;28;20405;-82
2022/08/24 19:51:28;;;;;;;1.75;0.65;;;;;;;;;;10489561;28;20550;-83
2022/08/24 19:56:32;;;;;;;0.50;0.50;;;;;;;;;;10507597;28;20045;-82
2022/08/24 20:01:37;;;;;;;0.90;0.75;;;;;;;;;;10467442;28;20045;-79
2022/08/24 20:06:41;;;;;;;0.75;0.50;;;;;;;;;;10479946;28;20574;-78
2022/08/24 20:11:44;;;;;;;1.40;0.70;;;;;;;;;;10476104;28;20060;-79
2022/08/24 20:16:50;;;;;;;0.52;0.52;;;;;;;;;;10464260;28;20101;-78
2022/08/24 20:21:56;;;;;;;0.73;0.63;;;;;;;;;;10480116;28;20044;-80
2022/08/24 20:26:59;;;;;;;0.50;0.50;;;;;;;;;;10463218;28;20086;-80
2022/08/24 20:32:04;;;;;;;0.60;0.60;;;;;;;;;;10478830;28;20040;-79
2022/08/24 20:37:08;;;;;;;1.00;0.50;;;;;;;;;;10469189;28;20504;-79
2022/08/24 20:42:12;;;;;;;1.27;0.70;;;;;;;;;;10480325;28;20302;-79
2022/08/24 20:47:19;;;;;;;0.60;0.60;;;;;;;;;;10478948;28;20037;-79
2022/08/24 20:52:25;;;;;;;0.75;0.60;;;;;;;;;;10479015;22;20109;-77
2022/08/24 20:57:28;;;;;;;1.60;0.60;;;;;;;;;;10477500;28;20043;-79
2022/08/24 21:02:33;;;;;;;2.40;0.70;;;;;;;;;;10475895;28;20072;-78
2022/08/24 21:07:37;;;;;;;2.30;0.75;;;;;;;;;;10477792;28;20209;-78
2022/08/24 21:12:40;;;;;;;1.90;0.60;;;;;;;;;;10478658;28;20075;-77
2022/08/24 21:17:45;;;;;;;1.33;0.70;;;;;;;;;;10476860;28;20052;-79
2022/08/24 21:22:48;;;;;;;1.33;0.80;;;;;;;;;;10477966;28;20502;-78
2022/08/24 21:27:52;;;;;;;3.85;0.90;;;;;;;;;;10476404;28;20082;-79
2022/08/24 21:38:23;;;;;;;3.25;0.60;;;;;;;;;;10488641;28;20060;-81
2022/08/24 21:43:28;;;;;;;0.90;0.60;;;;;;;;;;10496626;28;20048;-79
2022/08/24 21:48:33;;;;;;;0.82;0.80;;;;;;;;;;10496319;28;20063;-80
2022/08/24 21:53:36;;;;;;;2.60;0.65;;;;;;;;;;10495825;28;20057;-81
2022/08/24 21:58:40;;;;;;;3.90;0.80;;;;;;;;;;10480620;28;20051;-78
2022/08/24 22:03:45;;;;;;;2.63;0.70;;;;;;;;;;10476167;28;20056;-77
2022/08/24 22:08:50;;;;;;;0.82;0.68;;;;;;;;;;10476485;28;20075;-78
2022/08/24 22:13:54;;;;;;;3.65;1.08;;;;;;;;;;10475811;28;20481;-77
2022/08/24 22:18:59;;;;;;;0.70;0.60;;;;;;;;;;10477817;28;20515;-77
2022/08/24 22:24:02;;;;;;;2.33;0.70;;;;;;;;;;10475733;28;20040;-77
2022/08/24 22:29:08;;;;;;;1.65;0.80;;;;;;;;;;10476718;28;20060;-77
2022/08/24 22:34:14;;;;;;;;;;;;;;;;;;10477173;28;20075;-77
2022/08/24 22:39:18;;;;;;;2.13;0.60;;;;;;;;;;10474270;28;19920;-77
2022/08/24 22:44:22;;;;;;;1.65;0.60;;;;;;;;;;10475010;28;20481;-77
2022/08/24 22:49:29;;;;;;;1.23;0.98;;;;;;;;;;10479164;28;20036;-80
2022/08/24 22:54:34;;;;;;;0.98;0.88;;;;;;;;;;10494386;28;20041;-79
2022/08/24 22:59:40;;;;;;;2.08;0.73;;;;;;;;;;10493814;28;20037;-80
2022/08/24 23:04:48;;;;;;;1.77;1.00;;;;;;;;;;10493887;28;20466;-79
2022/08/24 23:09:52;;;;;;;1.13;0.70;;;;;;;;;;10493054;28;20117;-80
2022/08/24 23:14:56;;;;;;;1.50;0.88;;;;;;;;;;10492768;28;20101;-80
2022/08/24 23:20:04;;;;;;;1.23;0.85;;;;;;;;;;10484489;28;20041;-80
2022/08/24 23:25:10;;;;;;;1.00;0.80;;;;;;;;;;10491019;28;20102;-79
2022/08/24 23:30:14;;;;;;;1.23;0.95;;;;;;;;;;10492552;28;20045;-80
2022/08/24 23:35:19;;;;;;;1.17;0.73;;;;;;;;;;10492217;28;20044;-79
2022/08/24 23:40:22;;;;;;;1.23;0.95;;;;;;;;;;10489568;28;20412;-80
2022/08/24 23:45:26;;;;;;;1.38;1.27;;;;;;;;;;10490338;28;20512;-80
2022/08/24 23:50:31;;;;;;;0.93;0.82;;;;;;;;;;10488855;28;20040;-79
2022/08/24 23:55:34;;;;;;;1.30;0.85;;;;;;;;;;10488478;28;20067;-79
